createdAt,value
2023-03-06T00:00:37.910Z,100325.00
2023-03-06T00:03:04.519Z,100327.63
2023-03-06T00:05:30.972Z,100332.91
2023-03-06T00:07:57.446Z,100334.66
2023-03-06T00:10:25.972Z,100318.00
2023-03-06T00:12:53.593Z,100320.63
2023-03-06T00:15:20.163Z,100323.25
2023-03-06T00:17:46.683Z,100316.25
2023-03-06T00:20:13.709Z,100317.97
2023-03-06T00:22:40.418Z,100310.09
2023-03-06T00:25:07.506Z,100306.56
2023-03-06T00:27:33.921Z,100310.06
2023-03-06T00:30:00.529Z,100312.69
2023-03-06T00:32:27.296Z,100317.06
2023-03-06T00:34:54.549Z,100309.19
2023-03-06T00:37:21.646Z,100315.31
2023-03-06T00:39:48.028Z,100310.06
2023-03-06T00:42:14.520Z,100299.53
2023-03-06T00:44:40.944Z,100314.44
2023-03-06T00:47:07.424Z,100313.56
2023-03-06T00:49:33.995Z,100314.44
2023-03-06T00:52:00.418Z,100310.94
2023-03-06T00:54:26.873Z,100307.47
2023-03-06T00:56:53.294Z,100308.34
2023-03-06T00:59:19.751Z,100315.34
2023-03-06T01:01:46.174Z,100329.38
2023-03-06T01:04:12.675Z,100318.00
2023-03-06T01:06:39.083Z,100320.63
2023-03-06T01:09:05.530Z,100318.03
2023-03-06T01:11:31.935Z,100314.53
2023-03-06T01:13:58.429Z,100310.13
2023-03-06T01:16:24.883Z,100314.50
2023-03-06T01:18:51.373Z,100311.03
2023-03-06T01:21:17.784Z,100307.53
2023-03-06T01:23:44.210Z,100304.88
2023-03-06T01:26:10.666Z,100295.28
2023-03-06T01:28:37.483Z,100303.13
2023-03-06T01:31:04.228Z,100296.13
2023-03-06T01:33:30.709Z,100298.75
2023-03-06T01:35:57.178Z,100294.38
2023-03-06T01:38:23.639Z,100294.38
2023-03-06T01:40:50.036Z,100291.75
2023-03-06T01:43:25.222Z,100278.59
2023-03-06T01:45:51.576Z,100280.34
2023-03-06T01:48:21.957Z,100272.41
2023-03-06T01:50:48.779Z,100267.19
2023-03-06T01:53:15.178Z,100275.97
2023-03-06T01:55:41.595Z,100275.09
2023-03-06T01:58:10.135Z,100270.75
2023-03-06T02:00:36.535Z,100274.25
2023-03-06T02:03:02.814Z,100268.09
2023-03-06T02:05:29.238Z,100264.59
2023-03-06T02:07:55.675Z,100264.59
2023-03-06T02:10:22.118Z,100266.31
2023-03-06T02:12:48.581Z,100262.81
2023-03-06T02:15:16.857Z,100263.69
2023-03-06T02:17:44.033Z,100261.94
2023-03-06T02:20:21.002Z,100262.81
2023-03-06T02:23:20.653Z,100265.44
2023-03-06T02:25:47.409Z,100262.81
2023-03-06T02:28:18.403Z,100261.91
2023-03-06T02:30:45.576Z,100262.81
2023-03-06T02:33:13.522Z,100251.44
2023-03-06T02:35:39.979Z,100254.91
2023-03-06T02:38:09.629Z,100250.53
2023-03-06T02:40:36.097Z,100251.44
2023-03-06T02:43:02.606Z,100243.56
2023-03-06T02:45:33.653Z,100245.25
2023-03-06T02:48:00.108Z,100242.63
2023-03-06T02:50:26.525Z,100240.03
2023-03-06T02:52:52.969Z,100234.81
2023-03-06T02:55:19.402Z,100221.69
2023-03-06T02:57:45.829Z,100227.81
2023-03-06T03:00:12.415Z,100221.69
2023-03-06T03:02:38.857Z,100217.31
2023-03-06T03:05:05.748Z,100212.94
2023-03-06T03:07:32.203Z,100207.69
2023-03-06T03:09:58.587Z,100204.19
2023-03-06T03:12:25.028Z,100197.16
2023-03-06T03:14:51.464Z,100199.78
2023-03-06T03:17:17.894Z,100207.69
2023-03-06T03:19:44.335Z,100200.66
2023-03-06T03:22:10.803Z,100198.91
2023-03-06T03:24:37.234Z,100191.91
2023-03-06T03:27:03.773Z,100196.28
2023-03-06T03:29:30.181Z,100188.44
2023-03-06T03:31:56.609Z,100191.94
2023-03-06T03:34:23.037Z,100192.84
2023-03-06T03:36:49.413Z,100189.38
2023-03-06T03:39:15.820Z,100191.09
2023-03-06T03:41:42.276Z,100196.38
2023-03-06T03:44:08.955Z,100186.75
2023-03-06T03:46:35.461Z,100181.47
2023-03-06T03:49:01.889Z,100181.47
2023-03-06T03:51:28.311Z,100183.22
2023-03-06T03:53:54.719Z,100181.47
2023-03-06T03:56:21.114Z,100176.22
2023-03-06T03:58:47.543Z,100178.84
2023-03-06T04:01:14.033Z,100170.13
2023-03-06T04:03:40.474Z,100171.84
2023-03-06T04:06:07.153Z,100179.72
2023-03-06T04:08:33.623Z,100177.13
2023-03-06T04:11:00.053Z,100176.25
2023-03-06T04:13:26.534Z,100176.25
2023-03-06T04:15:53.886Z,100173.63
2023-03-06T04:18:20.521Z,100169.25
2023-03-06T04:20:47.010Z,100167.50
2023-03-06T04:23:13.418Z,100164.88
2023-03-06T04:25:39.913Z,100159.63
2023-03-06T04:28:06.500Z,100161.38
2023-03-06T04:30:33.062Z,100163.13
2023-03-06T04:32:59.473Z,100159.63
2023-03-06T04:35:25.918Z,100154.41
2023-03-06T04:37:52.335Z,100157.03
2023-03-06T04:40:20.418Z,100161.41
2023-03-06T04:42:47.435Z,100151.81
2023-03-06T04:45:14.083Z,100146.56
2023-03-06T04:47:40.537Z,100143.06
2023-03-06T04:50:07.377Z,100140.44
2023-03-06T04:52:33.763Z,100140.44
2023-03-06T04:55:00.184Z,100143.06
2023-03-06T04:57:26.589Z,100137.81
2023-03-06T04:59:53.015Z,100141.34
2023-03-06T05:02:19.446Z,100139.59
2023-03-06T05:04:45.943Z,100137.84
2023-03-06T05:07:12.382Z,100139.56
2023-03-06T05:09:39.212Z,100133.44
2023-03-06T05:12:05.832Z,100138.69
2023-03-06T05:14:32.266Z,100128.19
2023-03-06T05:16:58.697Z,100128.16
2023-03-06T05:19:25.131Z,100131.66
2023-03-06T05:21:51.565Z,100133.38
2023-03-06T05:24:18.007Z,100125.50
2023-03-06T05:26:44.454Z,100133.38
2023-03-06T05:29:10.836Z,100131.63
2023-03-06T05:31:37.285Z,100134.25
2023-03-06T05:34:03.703Z,100129.00
2023-03-06T05:36:30.153Z,100132.47
2023-03-06T05:38:56.576Z,100123.75
2023-03-06T05:41:23.000Z,100115.88
2023-03-06T05:43:49.393Z,100115.00
2023-03-06T05:46:15.889Z,100119.38
2023-03-06T05:48:42.392Z,100116.78
2023-03-06T05:51:09.694Z,100121.16
2023-03-06T05:53:36.088Z,100116.78
2023-03-06T05:56:03.889Z,100112.41
2023-03-06T05:58:30.759Z,100116.78
2023-03-06T06:00:57.228Z,100120.28
2023-03-06T06:03:23.793Z,100108.91
2023-03-06T06:05:50.619Z,100112.38
2023-03-06T06:08:17.056Z,100110.63
2023-03-06T06:10:43.503Z,100115.81
2023-03-06T06:13:09.956Z,100114.06
2023-03-06T06:15:38.219Z,100109.69
2023-03-06T06:18:04.683Z,100107.06
2023-03-06T06:20:31.091Z,100108.81
2023-03-06T06:22:57.532Z,100117.63
2023-03-06T06:25:23.963Z,100115.88
2023-03-06T06:27:50.362Z,100112.38
2023-03-06T06:30:17.045Z,100121.13
2023-03-06T06:32:43.476Z,100125.50
2023-03-06T06:35:10.091Z,100125.50
2023-03-06T06:37:36.513Z,100123.75
2023-03-06T06:40:03.500Z,100116.69
2023-03-06T06:42:36.958Z,100116.69
2023-03-06T06:45:06.010Z,100122.81
2023-03-06T06:47:32.826Z,100124.56
2023-03-06T06:49:59.298Z,100124.56
2023-03-06T06:52:25.856Z,100125.44
2023-03-06T06:54:52.662Z,100127.19
2023-03-06T06:57:19.042Z,100118.41
2023-03-06T06:59:45.476Z,100121.91
2023-03-06T07:02:12.645Z,100107.91
2023-03-06T07:04:56.214Z,100114.91
2023-03-06T07:07:28.157Z,100107.91
2023-03-06T07:09:55.115Z,100120.22
2023-03-06T07:12:21.499Z,100117.56
2023-03-06T07:14:47.908Z,100114.06
2023-03-06T07:17:14.305Z,100121.06
2023-03-06T07:19:40.724Z,100120.19
2023-03-06T07:22:07.112Z,100121.03
2023-03-06T07:24:33.824Z,100114.91
2023-03-06T07:27:00.222Z,100122.78
2023-03-06T07:29:26.671Z,100122.78
2023-03-06T07:31:53.081Z,100125.41
2023-03-06T07:34:19.508Z,100124.53
2023-03-06T07:36:45.892Z,100126.28
2023-03-06T07:39:12.362Z,100135.88
2023-03-06T07:41:38.766Z,100133.22
2023-03-06T07:44:05.186Z,100131.44
2023-03-06T07:46:31.699Z,100133.16
2023-03-06T07:48:58.126Z,100136.69
2023-03-06T07:51:24.563Z,100133.19
2023-03-06T07:53:51.005Z,100128.75
2023-03-06T07:56:17.408Z,100142.69
2023-03-06T07:58:44.638Z,100137.38
2023-03-06T08:01:13.060Z,100140.00
2023-03-06T08:03:39.488Z,100135.63
2023-03-06T08:06:16.787Z,100139.13
2023-03-06T08:08:44.004Z,100140.03
2023-03-06T08:11:11.538Z,100138.31
2023-03-06T08:13:38.160Z,100140.06
2023-03-06T08:16:04.855Z,100139.13
2023-03-06T08:18:31.343Z,100150.50
2023-03-06T08:21:21.593Z,100143.53
2023-03-06T08:23:48.071Z,100143.53
2023-03-06T08:26:22.329Z,100149.66
2023-03-06T08:28:48.785Z,100149.63
2023-03-06T08:31:24.105Z,100152.22
2023-03-06T08:33:50.528Z,100158.34
2023-03-06T08:36:16.977Z,100162.72
2023-03-06T08:38:43.400Z,100160.97
2023-03-06T08:41:09.837Z,100165.34
2023-03-06T08:43:36.289Z,100154.84
2023-03-06T08:46:02.819Z,100155.72
2023-03-06T08:48:29.288Z,100160.97
2023-03-06T08:50:55.751Z,100156.53
2023-03-06T08:53:28.022Z,100153.88
2023-03-06T08:56:03.539Z,100159.13
2023-03-06T08:58:29.977Z,100161.78
2023-03-06T09:00:56.663Z,100167.03
2023-03-06T09:03:23.139Z,100162.72
2023-03-06T09:05:49.842Z,100164.41
2023-03-06T09:08:16.357Z,100164.38
2023-03-06T09:10:46.979Z,100174.84
2023-03-06T09:13:13.504Z,100177.47
2023-03-06T09:15:39.933Z,100174.00
2023-03-06T09:18:06.472Z,100177.50
2023-03-06T09:20:32.929Z,100179.25
2023-03-06T09:22:59.331Z,100171.31
2023-03-06T09:25:25.742Z,100166.84
2023-03-06T09:28:08.761Z,100167.69
2023-03-06T09:30:37.358Z,100170.28
2023-03-06T09:33:04.194Z,100170.22
2023-03-06T09:35:30.681Z,100163.97
2023-03-06T09:37:57.226Z,100170.03
2023-03-06T09:40:52.714Z,100171.88
2023-03-06T09:43:21.337Z,100171.84
2023-03-06T09:45:47.766Z,100164.66
2023-03-06T09:48:14.786Z,100172.53
2023-03-06T09:50:45.961Z,100170.81
2023-03-06T09:53:18.277Z,100170.88
2023-03-06T09:55:46.758Z,100151.69
2023-03-06T09:58:17.008Z,100162.09
2023-03-06T10:01:22.949Z,100161.88
2023-03-06T10:04:06.102Z,100169.66
2023-03-06T10:06:35.486Z,100168.81
2023-03-06T10:09:19.915Z,100160.25
2023-03-06T10:12:05.182Z,100167.28
2023-03-06T10:14:46.660Z,100174.19
2023-03-06T10:17:20.677Z,100167.97
2023-03-06T10:19:47.141Z,100161.81
2023-03-06T10:22:33.726Z,100161.88
2023-03-06T10:25:18.875Z,100162.53
2023-03-06T10:27:49.111Z,100158.00
2023-03-06T10:30:51.015Z,100159.69
2023-03-06T10:33:53.002Z,100154.53
2023-03-06T10:36:20.006Z,100144.91
2023-03-06T10:38:49.496Z,100144.03
2023-03-06T10:41:26.032Z,100144.84
2023-03-06T10:44:01.314Z,100134.16
2023-03-06T10:46:49.113Z,100136.81
2023-03-06T10:49:35.712Z,100142.94
2023-03-06T10:52:14.878Z,100134.06
2023-03-06T10:54:44.599Z,100132.16
2023-03-06T10:57:28.353Z,100132.66
2023-03-06T10:59:58.162Z,100123.50
2023-03-06T11:02:35.277Z,100130.25
2023-03-06T11:05:01.922Z,100123.94
2023-03-06T11:07:32.456Z,100124.91
2023-03-06T11:09:58.780Z,100122.25
2023-03-06T11:12:38.694Z,100131.91
2023-03-06T11:15:14.134Z,100127.66
2023-03-06T11:18:08.626Z,100130.50
2023-03-06T11:20:51.159Z,100121.09
2023-03-06T11:23:31.688Z,100125.69
2023-03-06T11:26:13.301Z,100123.78
2023-03-06T11:28:45.810Z,100112.88
2023-03-06T11:31:33.459Z,100108.06
2023-03-06T11:34:11.809Z,100103.50
2023-03-06T11:36:47.279Z,100105.81
2023-03-06T11:39:19.664Z,100098.59
2023-03-06T11:42:03.721Z,100104.78
2023-03-06T11:44:57.474Z,100097.06
2023-03-06T11:47:38.911Z,100100.75
2023-03-06T11:50:17.595Z,100098.91
2023-03-06T11:52:53.562Z,100093.22
2023-03-06T11:55:24.268Z,100097.34
2023-03-06T11:57:56.871Z,100096.06
2023-03-06T12:00:38.636Z,100089.91
2023-03-06T12:03:04.908Z,100093.47
2023-03-06T12:05:35.537Z,100088.09
2023-03-06T12:08:14.142Z,100087.06
2023-03-06T12:10:51.444Z,100096.31
2023-03-06T12:13:46.969Z,100094.00
2023-03-06T12:16:20.659Z,100092.13
2023-03-06T12:18:50.132Z,100089.78
2023-03-06T12:22:04.936Z,100086.63
2023-03-06T12:24:52.321Z,100079.91
2023-03-06T12:27:33.597Z,100080.00
2023-03-06T12:30:23.088Z,100079.28
2023-03-06T12:32:52.389Z,100076.78
2023-03-06T12:35:55.904Z,100075.34
2023-03-06T12:38:31.396Z,100069.66
2023-03-06T12:41:09.335Z,100075.00
2023-03-06T12:43:48.824Z,100072.50
2023-03-06T12:46:22.899Z,100063.78
2023-03-06T12:49:31.491Z,100067.06
2023-03-06T12:51:58.675Z,100062.19
2023-03-06T12:54:28.190Z,100061.13
2023-03-06T12:56:55.372Z,100060.06
2023-03-06T12:59:40.206Z,100061.94
2023-03-06T13:02:17.336Z,100064.59
2023-03-06T13:05:05.468Z,100053.84
2023-03-06T13:07:48.377Z,100056.16
2023-03-06T13:10:34.938Z,100049.97
2023-03-06T13:13:24.741Z,100051.94
2023-03-06T13:16:18.337Z,100052.00
2023-03-06T13:18:44.673Z,100051.03
2023-03-06T13:21:41.610Z,100058.03
2023-03-06T13:24:21.113Z,100055.25
2023-03-06T13:26:56.492Z,100045.69
2023-03-06T13:29:38.128Z,100048.44
2023-03-06T13:32:15.371Z,100050.28
2023-03-06T13:34:43.209Z,100055.34
2023-03-06T13:37:18.627Z,100048.44
2023-03-06T13:39:57.058Z,100046.03
2023-03-06T13:42:33.160Z,100048.97
2023-03-06T13:45:27.350Z,100040.63
2023-03-06T13:48:33.831Z,100052.31
2023-03-06T13:50:43.896Z,100042.94
2023-03-06T13:53:35.360Z,100040.78
2023-03-06T13:56:20.367Z,100044.06
2023-03-06T13:59:05.536Z,100045.88
2023-03-06T14:01:53.814Z,100035.72
2023-03-06T14:04:46.663Z,100035.06
2023-03-06T14:07:29.865Z,100027.72
2023-03-06T14:10:14.586Z,100023.97
2023-03-06T14:12:41.817Z,100023.22
2023-03-06T14:15:17.310Z,100021.47
2023-03-06T14:17:57.302Z,100013.09
2023-03-06T14:20:46.481Z,100007.88
2023-03-06T14:23:16.364Z,100001.84
2023-03-06T14:25:42.985Z,100008.53
2023-03-06T14:28:21.898Z,100009.19
2023-03-06T14:30:52.094Z,100006.25
2023-03-06T14:33:33.093Z,100004.19
2023-03-06T14:36:01.363Z,100007.81
2023-03-06T14:38:28.696Z,99998.03
2023-03-06T14:40:55.174Z,99993.34
2023-03-06T14:43:23.224Z,99990.81
2023-03-06T14:45:59.496Z,99991.03
2023-03-06T14:48:46.314Z,99994.91
2023-03-06T14:51:21.859Z,99991.91
2023-03-06T14:53:49.544Z,99988.84
2023-03-06T14:56:20.770Z,99998.44
2023-03-06T14:58:56.074Z,99988.78
2023-03-06T15:01:44.369Z,99989.63
2023-03-06T15:04:23.631Z,99993.91
2023-03-06T15:06:50.091Z,99996.47
2023-03-06T15:09:18.065Z,99994.47
2023-03-06T15:12:04.031Z,99984.69
2023-03-06T15:14:38.042Z,99985.41
2023-03-06T15:17:19.337Z,99985.44
2023-03-06T15:19:46.733Z,99980.13
2023-03-06T15:22:34.434Z,99984.03
2023-03-06T15:25:11.924Z,99986.03
2023-03-06T15:27:38.340Z,99985.97
2023-03-06T15:30:20.630Z,99977.28
2023-03-06T15:32:47.050Z,99972.13
2023-03-06T15:35:26.584Z,99969.06
2023-03-06T15:37:53.032Z,99966.31
2023-03-06T15:40:20.193Z,99973.94
2023-03-06T15:42:46.688Z,99961.56
2023-03-06T15:45:18.054Z,99954.94
2023-03-06T15:47:45.139Z,99962.16
2023-03-06T15:50:24.264Z,99957.69
2023-03-06T15:52:50.813Z,99956.28
2023-03-06T15:55:26.364Z,99951.50
2023-03-06T15:58:02.217Z,99956.19
2023-03-06T16:00:35.664Z,99948.38
2023-03-06T16:03:02.086Z,99936.31
2023-03-06T16:05:28.595Z,99954.03
2023-03-06T16:07:55.209Z,99956.88
2023-03-06T16:10:23.344Z,99947.38
2023-03-06T16:12:51.300Z,99950.13
2023-03-06T16:15:20.773Z,99948.56
2023-03-06T16:17:47.193Z,99948.69
2023-03-06T16:20:15.197Z,99945.38
2023-03-06T16:22:41.660Z,99950.81
2023-03-06T16:25:08.416Z,99948.25
2023-03-06T16:27:34.826Z,99939.66
2023-03-06T16:30:01.278Z,99942.41
2023-03-06T16:32:28.819Z,99942.50
2023-03-06T16:34:55.327Z,99940.88
2023-03-06T16:37:21.772Z,99943.66
2023-03-06T16:39:48.164Z,99942.84
2023-03-06T16:42:14.654Z,99930.59
2023-03-06T16:44:41.066Z,99937.78
2023-03-06T16:47:10.102Z,99930.78
2023-03-06T16:49:36.579Z,99934.38
2023-03-06T16:52:03.061Z,99935.25
2023-03-06T16:54:29.563Z,99933.63
2023-03-06T16:56:55.990Z,99939.84
2023-03-06T16:59:22.458Z,99935.41
2023-03-06T17:01:48.894Z,99931.88
2023-03-06T17:04:15.398Z,99925.81
2023-03-06T17:06:41.921Z,99931.06
2023-03-06T17:09:08.594Z,99928.56
2023-03-06T17:11:36.123Z,99936.47
2023-03-06T17:14:02.632Z,99932.13
2023-03-06T17:16:29.044Z,99924.28
2023-03-06T17:18:55.489Z,99925.13
2023-03-06T17:21:21.935Z,99927.72
2023-03-06T17:23:48.370Z,99919.91
2023-03-06T17:26:16.301Z,99919.09
2023-03-06T17:28:42.787Z,99927.00
2023-03-06T17:31:19.649Z,99922.66
2023-03-06T17:33:46.309Z,99923.66
2023-03-06T17:36:12.884Z,99921.91
2023-03-06T17:38:39.348Z,99925.47
2023-03-06T17:41:06.787Z,99922.84
2023-03-06T17:43:33.327Z,99920.16
2023-03-06T17:46:10.422Z,99926.31
2023-03-06T17:48:36.930Z,99926.31
2023-03-06T17:51:03.631Z,99911.41
2023-03-06T17:53:30.076Z,99911.41
2023-03-06T17:55:56.519Z,99912.28
2023-03-06T17:58:22.943Z,99919.34
2023-03-06T18:00:49.375Z,99908.88
2023-03-06T18:03:15.795Z,99914.19
2023-03-06T18:05:42.213Z,99902.75
2023-03-06T18:08:08.655Z,99909.00
2023-03-06T18:10:35.085Z,99902.00
2023-03-06T18:13:01.548Z,99901.19
2023-03-06T18:15:28.046Z,99901.22
2023-03-06T18:17:55.021Z,99891.66
2023-03-06T18:20:21.461Z,99890.78
2023-03-06T18:22:47.881Z,99884.66
2023-03-06T18:25:14.392Z,99880.28
2023-03-06T18:27:40.849Z,99875.94
2023-03-06T18:30:07.791Z,99875.13
2023-03-06T18:32:34.235Z,99870.78
2023-03-06T18:35:00.678Z,99863.75
2023-03-06T18:37:27.104Z,99860.28
2023-03-06T18:39:53.538Z,99855.91
2023-03-06T18:42:19.957Z,99857.66
2023-03-06T18:44:46.408Z,99850.72
2023-03-06T18:47:12.899Z,99847.25
2023-03-06T18:49:40.586Z,99843.63
2023-03-06T18:52:07.702Z,99836.69
2023-03-06T18:54:34.136Z,99832.31
2023-03-06T18:57:00.542Z,99832.31
2023-03-06T18:59:27.002Z,99834.97
2023-03-06T19:01:53.430Z,99834.09
2023-03-06T19:04:19.971Z,99830.53
2023-03-06T19:06:49.511Z,99827.03
2023-03-06T19:09:15.949Z,99822.69
2023-03-06T19:11:42.385Z,99817.53
2023-03-06T19:14:09.030Z,99814.81
2023-03-06T19:16:35.474Z,99813.97
2023-03-06T19:19:02.428Z,99812.31
2023-03-06T19:21:33.924Z,99804.38
2023-03-06T19:24:01.805Z,99804.41
2023-03-06T19:26:28.284Z,99802.69
2023-03-06T19:28:54.840Z,99795.81
2023-03-06T19:31:23.456Z,99791.47
2023-03-06T19:33:49.887Z,99793.25
2023-03-06T19:36:16.860Z,99789.78
2023-03-06T19:38:43.341Z,99784.53
2023-03-06T19:41:11.528Z,99779.25
2023-03-06T19:43:38.024Z,99781.00
2023-03-06T19:46:04.736Z,99773.94
2023-03-06T19:48:31.177Z,99770.47
2023-03-06T19:51:04.394Z,99765.22
2023-03-06T19:53:30.903Z,99761.66
2023-03-06T19:56:08.416Z,99757.22
2023-03-06T19:58:34.967Z,99755.50
2023-03-06T20:01:12.048Z,99752.94
2023-03-06T20:03:38.497Z,99743.28
2023-03-06T20:06:05.471Z,99736.25
2023-03-06T20:08:32.483Z,99731.91
2023-03-06T20:10:58.978Z,99723.97
2023-03-06T20:13:25.444Z,99725.78
2023-03-06T20:15:51.922Z,99723.13
2023-03-06T20:18:18.367Z,99710.00
2023-03-06T20:20:44.788Z,99704.84
2023-03-06T20:23:11.368Z,99705.78
2023-03-06T20:25:38.181Z,99696.16
2023-03-06T20:28:04.753Z,99694.41
2023-03-06T20:30:37.816Z,99687.41
2023-03-06T20:33:04.950Z,99678.72
2023-03-06T20:35:32.742Z,99676.09
2023-03-06T20:37:59.177Z,99670.88
2023-03-06T20:40:25.701Z,99667.41
2023-03-06T20:42:52.136Z,99667.50
2023-03-06T20:45:18.578Z,99661.38
2023-03-06T20:47:44.976Z,99662.28
2023-03-06T20:50:11.565Z,99652.63
2023-03-06T20:52:38.032Z,99636.88
2023-03-06T20:55:04.866Z,99639.47
2023-03-06T20:57:31.315Z,99634.19
2023-03-06T20:59:57.792Z,99629.78
2023-03-06T21:02:24.189Z,99626.16
2023-03-06T21:04:50.723Z,99615.59
2023-03-06T21:07:17.184Z,99622.59
2023-03-06T21:09:43.611Z,99612.09
2023-03-06T21:12:10.018Z,99599.78
2023-03-06T21:14:37.986Z,99596.16
2023-03-06T21:17:04.446Z,99602.22
2023-03-06T21:19:30.879Z,99595.22
2023-03-06T21:21:57.300Z,99588.22
2023-03-06T21:24:23.740Z,99584.69
2023-03-06T21:26:50.174Z,99586.44
2023-03-06T21:29:16.882Z,99576.72
2023-03-06T21:31:43.367Z,99571.47
2023-03-06T21:34:09.786Z,99567.06
2023-03-06T21:36:36.234Z,99557.41
2023-03-06T21:39:02.687Z,99556.56
2023-03-06T21:41:29.152Z,99552.06
2023-03-06T21:43:56.406Z,99538.91
2023-03-06T21:46:23.132Z,99532.75
2023-03-06T21:48:49.561Z,99539.72
2023-03-06T21:51:17.124Z,99524.81
2023-03-06T21:53:43.845Z,99534.38
2023-03-06T21:56:10.586Z,99523.84
2023-03-06T21:58:37.151Z,99523.91
2023-03-06T22:01:09.116Z,99514.13
2023-03-06T22:03:35.523Z,99509.78
2023-03-06T22:06:15.533Z,99506.16
2023-03-06T22:08:42.182Z,99492.13
2023-03-06T22:11:09.700Z,99483.41
2023-03-06T22:13:36.616Z,99476.22
2023-03-06T22:16:03.235Z,99469.22
2023-03-06T22:18:29.649Z,99466.50
2023-03-06T22:20:56.092Z,99459.56
2023-03-06T22:23:22.614Z,99453.28
2023-03-06T22:25:49.060Z,99447.13
2023-03-06T22:28:15.523Z,99448.88
2023-03-06T22:30:41.941Z,99438.38
2023-03-06T22:33:08.343Z,99441.88
2023-03-06T22:35:34.799Z,99428.63
2023-03-06T22:38:01.203Z,99423.38
2023-03-06T22:40:27.657Z,99424.25
2023-03-06T22:42:54.087Z,99412.88
2023-03-06T22:45:20.489Z,99417.28
2023-03-06T22:47:46.975Z,99406.88
2023-03-06T22:50:13.433Z,99399.13
2023-03-06T22:52:39.863Z,99401.94
2023-03-06T22:55:06.654Z,99392.28
2023-03-06T22:57:33.119Z,99386.38
2023-03-06T22:59:59.542Z,99380.38
2023-03-06T23:02:25.983Z,99371.69
2023-03-06T23:04:52.413Z,99369.16
2023-03-06T23:07:21.966Z,99354.34
2023-03-06T23:09:48.370Z,99345.56
2023-03-06T23:12:14.794Z,99341.16
2023-03-06T23:14:41.273Z,99333.31
2023-03-06T23:17:07.815Z,99332.44
2023-03-06T23:19:34.239Z,99328.94
2023-03-06T23:22:00.662Z,99315.97
2023-03-06T23:24:27.091Z,99309.88
2023-03-06T23:26:53.517Z,99299.38
2023-03-06T23:29:19.965Z,99300.22
2023-03-06T23:31:46.373Z,99295.00
2023-03-06T23:34:12.801Z,99289.78
2023-03-06T23:36:39.197Z,99281.84
2023-03-06T23:39:05.622Z,99277.47
2023-03-06T23:41:32.020Z,99271.47
2023-03-06T23:43:58.471Z,99268.78
2023-03-06T23:46:24.967Z,99267.06
2023-03-06T23:48:52.072Z,99245.16
2023-03-06T23:51:19.814Z,99250.28
2023-03-06T23:53:46.737Z,99242.41
2023-03-06T23:56:13.200Z,99248.53
2023-03-06T23:58:39.789Z,99239.69
